Time;durP1;ratioP1;P1;durP2;ratioP2;P2;SDS_P1;SDS_P2;PMS_P1;PMS_P2;Temp;Humidity;BMP_temperature;BMP_pressure;BME280_temperature;BME280_humidity;BME280_pressure;Samples;Min_cycle;Max_cycle;Signal;HPM_P1;HPM_P2
2023/04/08 00:01:01;;;;;;;;;;;;;;;12.10;63.59;102019.68;110450;1268;22507;-50
2023/04/08 00:03:31;;;;;;;;;;;;;;;12.04;63.63;102022.69;110440;1268;22434;-50
2023/04/08 00:06:01;;;;;;;;;;;;;;;12.01;63.69;102024.27;110443;1268;22397;-50
2023/04/08 00:08:29;;;;;;;;;;;;;;;11.98;63.94;102025.85;110479;1276;22796;-50
2023/04/08 00:10:58;;;;;;;;;;;;;;;11.97;64.01;102032.83;109711;1268;1003038;-50
2023/04/08 00:13:29;;;;;;;;;;;;;;;11.97;64.11;102043.78;110431;1269;22482;-50
2023/04/08 00:15:58;;;;;;;;;;;;;;;12.01;64.10;102046.36;110476;1268;22421;-50
2023/04/08 00:18:26;;;;;;;;;;;;;;;12.05;63.94;102048.59;110460;1276;23161;-49
2023/04/08 00:20:56;;;;;;;;;;;;;;;12.11;63.73;102042.46;110503;1268;22405;-50
2023/04/08 00:23:24;;;;;;;;;;;;;;;12.13;63.65;102041.91;110229;1271;23026;-50
2023/04/08 00:25:52;;;;;;;;;;;;;;;12.15;63.47;102038.60;110434;1276;22527;-50
2023/04/08 00:28:21;;;;;;;;;;;;;;;12.14;63.33;102036.52;110464;1268;22434;-50
2023/04/08 00:30:50;;;;;;;;;;;;;;;12.09;63.40;102033.09;110437;1276;22419;-50
2023/04/08 00:33:18;;;;;;;;;;;;;;;12.04;63.59;102030.86;110432;1276;22416;-50
2023/04/08 00:35:46;;;;;;;;;;;;;;;12.05;63.66;102030.85;110441;1268;22513;-50
2023/04/08 00:38:15;;;;;;;;;;;;;;;12.07;63.78;102031.70;110356;1269;22431;-50
2023/04/08 00:40:43;;;;;;;;;;;;;;;12.09;63.92;102032.73;110454;1276;22557;-50
2023/04/08 00:43:11;;;;;;;;;;;;;;;12.10;63.82;102030.64;110400;1276;23101;-50
2023/04/08 00:45:40;;;;;;;;;;;;;;;12.13;63.75;102029.22;110352;1276;22685;-50
2023/04/08 00:48:09;;;;;;;;;;;;;;;12.16;63.64;102031.11;110190;1271;23192;-49
2023/04/08 00:50:37;;;;;;;;;;;;;;;12.19;63.58;102034.21;110431;1276;23072;-50
2023/04/08 00:53:25;;;;;;;;;;;;;;;12.17;63.52;102032.33;110471;1268;23003;-51
2023/04/08 00:55:53;;;;;;;;;;;;;;;12.17;63.59;102035.98;110481;1268;22393;-49
2023/04/08 00:58:21;;;;;;;;;;;;;;;12.16;63.45;102034.94;110432;1268;22421;-50
2023/04/08 01:00:51;;;;;;;;;;;;;;;12.13;63.39;102034.60;110457;1272;23228;-51
2023/04/08 01:03:24;;;;;;;;;;;;;;;12.10;63.64;102037.77;110406;1276;23146;-50
2023/04/08 01:05:58;;;;;;;;;;;;;;;12.07;63.69;102039.89;110427;1276;22392;-50
2023/04/08 01:08:27;;;;;;;;;;;;;;;12.05;63.65;102040.77;110445;1276;23116;-50
2023/04/08 01:10:57;;;;;;;;;;;;;;;12.10;63.52;102038.98;110141;1279;22411;-50
2023/04/08 01:13:25;;;;;;;;;;;;;;;12.11;63.55;102040.38;110088;1273;23223;-50
2023/04/08 01:15:54;;;;;;;;;;;;;;;12.08;63.39;102041.09;110109;1273;22530;-50
2023/04/08 01:18:22;;;;;;;;;;;;;;;12.00;63.60;102043.25;109869;1279;22502;-50
2023/04/08 01:20:50;;;;;;;;;;;;;;;11.96;63.88;102041.52;110088;1273;23639;-51
2023/04/08 01:23:19;;;;;;;;;;;;;;;11.94;63.98;102044.67;110183;1273;22406;-50
2023/04/08 01:25:53;;;;;;;;;;;;;;;11.91;64.14;102045.21;110161;1271;22453;-50
2023/04/08 01:28:22;;;;;;;;;;;;;;;11.85;64.40;102045.44;110169;1272;23093;-50
2023/04/08 01:30:51;;;;;;;;;;;;;;;11.82;64.65;102048.23;110063;1279;22439;-50
2023/04/08 01:33:20;;;;;;;;;;;;;;;11.69;65.09;102045.17;110122;1272;22439;-50
2023/04/08 01:35:50;;;;;;;;;;;;;;;11.69;65.31;102047.25;110067;1274;22423;-49
2023/04/08 01:38:20;;;;;;;;;;;;;;;11.76;65.11;102053.65;110082;1273;22400;-51
2023/04/08 01:40:48;;;;;;;;;;;;;;;11.74;65.26;102054.52;110007;1276;22388;-50
2023/04/08 01:43:17;;;;;;;;;;;;;;;11.73;65.31;102058.01;110370;1270;22425;-50
2023/04/08 01:45:45;;;;;;;;;;;;;;;11.73;65.48;102057.31;110366;1273;22408;-50
2023/04/08 01:48:14;;;;;;;;;;;;;;;11.73;65.54;102057.50;110337;1273;22411;-50
2023/04/08 01:50:43;;;;;;;;;;;;;;;11.73;65.60;102057.32;110249;1276;22445;-50
2023/04/08 01:53:13;;;;;;;;;;;;;;;11.73;65.71;102061.84;110172;1271;22458;-50
2023/04/08 01:55:44;;;;;;;;;;;;;;;11.72;65.82;102061.84;110139;1279;22530;-50
2023/04/08 01:58:16;;;;;;;;;;;;;;;11.74;65.85;102058.70;110077;1279;22459;-50
2023/04/08 02:00:45;;;;;;;;;;;;;;;11.77;65.79;102059.38;110066;1279;23297;-50
2023/04/08 02:03:16;;;;;;;;;;;;;;;11.75;65.82;102058.35;109306;1273;1002389;-50
2023/04/08 02:05:46;;;;;;;;;;;;;;;11.72;66.02;102057.15;109367;1276;1002345;-50
2023/04/08 02:08:14;;;;;;;;;;;;;;;11.76;65.88;102061.98;109990;1279;23142;-51
2023/04/08 02:10:43;;;;;;;;;;;;;;;11.78;65.82;102061.82;110195;1271;23060;-50
2023/04/08 02:13:11;;;;;;;;;;;;;;;11.78;65.87;102060.95;110052;1271;22627;-50
2023/04/08 02:15:41;;;;;;;;;;;;;;;11.81;65.78;102064.58;110155;1272;22971;-50
2023/04/08 02:18:12;;;;;;;;;;;;;;;11.84;65.68;102064.21;110176;1279;22430;-50
2023/04/08 02:20:49;;;;;;;;;;;;;;;11.89;65.47;102063.66;109233;1276;1002255;-49
2023/04/08 02:23:23;;;;;;;;;;;;;;;11.93;65.26;102062.59;110173;1271;22427;-50
2023/04/08 02:25:52;;;;;;;;;;;;;;;11.97;65.00;102064.47;110341;1277;22416;-50
2023/04/08 02:28:20;;;;;;;;;;;;;;;12.00;64.87;102066.88;110361;1269;22430;-50
2023/04/08 02:30:49;;;;;;;;;;;;;;;12.04;64.64;102066.00;110156;1276;22433;-50
2023/04/08 02:33:22;;;;;;;;;;;;;;;12.06;64.34;102068.07;110229;1268;342467;-50
2023/04/08 02:35:55;;;;;;;;;;;;;;;12.07;64.20;102069.27;110374;1273;22412;-50
2023/04/08 02:38:31;;;;;;;;;;;;;;;12.06;63.98;102067.02;110353;1270;22478;-50
2023/04/08 02:40:59;;;;;;;;;;;;;;;12.04;64.02;102071.55;110490;1268;23220;-50
2023/04/08 02:43:31;;;;;;;;;;;;;;;12.02;63.97;102071.40;110379;1271;23081;-50
2023/04/08 02:46:02;;;;;;;;;;;;;;;11.99;64.01;102070.02;110503;1268;23237;-50
2023/04/08 02:48:31;;;;;;;;;;;;;;;11.94;64.16;102067.45;110472;1276;23164;-50
2023/04/08 02:50:59;;;;;;;;;;;;;;;11.92;64.28;102067.98;110227;1268;23180;-50
2023/04/08 02:53:28;;;;;;;;;;;;;;;11.92;64.37;102067.83;110393;1271;22496;-50
2023/04/08 02:55:56;;;;;;;;;;;;;;;11.91;64.39;102064.88;110360;1272;22398;-50
2023/04/08 02:58:24;;;;;;;;;;;;;;;11.91;64.53;102066.45;110466;1273;23190;-50
2023/04/08 03:00:54;;;;;;;;;;;;;;;11.90;64.64;102065.74;110195;1276;22407;-50
2023/04/08 03:03:28;;;;;;;;;;;;;;;11.89;64.74;102064.52;110489;1268;23118;-50
2023/04/08 03:05:57;;;;;;;;;;;;;;;11.88;64.80;102063.84;109730;1276;1002958;-50
2023/04/08 03:08:25;;;;;;;;;;;;;;;11.83;64.97;102062.83;110490;1273;22387;-50
2023/04/08 03:10:55;;;;;;;;;;;;;;;11.81;65.06;102063.88;110498;1268;22473;-50
2023/04/08 03:13:24;;;;;;;;;;;;;;;11.79;65.30;102061.98;110476;1268;22478;-50
2023/04/08 03:15:52;;;;;;;;;;;;;;;11.71;65.57;102060.80;110480;1268;22398;-50
2023/04/08 03:18:20;;;;;;;;;;;;;;;11.68;65.64;102057.52;110389;1276;22409;-50
2023/04/08 03:20:49;;;;;;;;;;;;;;;11.71;65.66;102055.08;110523;1268;22415;-50
2023/04/08 03:23:17;;;;;;;;;;;;;;;11.76;65.69;102056.09;110495;1276;22434;-50
2023/04/08 03:25:46;;;;;;;;;;;;;;;11.78;65.63;102057.64;110515;1268;22457;-50
2023/04/08 03:28:14;;;;;;;;;;;;;;;11.79;65.58;102059.37;110521;1276;22410;-51
2023/04/08 03:30:43;;;;;;;;;;;;;;;11.79;65.65;102063.02;110508;1257;22391;-50
2023/04/08 03:33:12;;;;;;;;;;;;;;;11.78;65.61;102061.13;109705;1268;1002461;-50
2023/04/08 03:35:40;;;;;;;;;;;;;;;11.77;65.65;102059.73;110457;1276;22454;-51
2023/04/08 03:38:08;;;;;;;;;;;;;;;11.75;65.69;102065.84;110519;1268;22725;-50
2023/04/08 03:40:36;;;;;;;;;;;;;;;11.71;65.82;102065.67;110526;1268;22479;-50
2023/04/08 03:43:07;;;;;;;;;;;;;;;11.74;65.87;102070.52;110482;1272;22603;-49
2023/04/08 03:45:35;;;;;;;;;;;;;;;11.77;65.90;102069.29;110491;1273;22445;-50
2023/04/08 03:48:05;;;;;;;;;;;;;;;11.79;65.89;102071.53;110523;1268;22405;-50
2023/04/08 03:50:33;;;;;;;;;;;;;;;11.80;65.92;102077.45;110519;1273;22397;-50
2023/04/08 03:53:03;;;;;;;;;;;;;;;11.80;65.96;102083.89;110242;1276;22501;-50
2023/04/08 03:55:31;;;;;;;;;;;;;;;11.82;66.08;102092.39;110227;1276;22402;-53
2023/04/08 03:57:59;;;;;;;;;;;;;;;11.87;65.95;102092.89;110473;1268;22433;-50
2023/04/08 04:00:28;;;;;;;;;;;;;;;11.91;65.50;102086.77;109756;1268;1002375;-50
2023/04/08 04:03:11;;;;;;;;;;;;;;;11.95;65.15;102096.66;110499;1268;22402;-49
2023/04/08 04:05:41;;;;;;;;;;;;;;;11.99;64.95;102095.25;110480;1268;22496;-51
2023/04/08 04:08:09;;;;;;;;;;;;;;;12.03;64.80;102095.40;110294;1270;22419;-50
2023/04/08 04:10:38;;;;;;;;;;;;;;;12.09;64.46;102100.58;110503;1273;22409;-50
2023/04/08 04:13:06;;;;;;;;;;;;;;;12.10;64.32;102105.08;110174;1276;22522;-50
2023/04/08 04:15:38;;;;;;;;;;;;;;;12.13;64.36;102108.19;109777;1276;1002581;-50
2023/04/08 04:18:07;;;;;;;;;;;;;;;12.19;64.24;102101.55;110512;1268;22412;-50
2023/04/08 04:20:39;;;;;;;;;;;;;;;12.23;63.98;102103.09;110486;1269;22470;-50
2023/04/08 04:23:07;;;;;;;;;;;;;;;12.26;64.01;102100.11;110505;1268;22435;-50
2023/04/08 04:25:38;;;;;;;;;;;;;;;12.30;63.95;102099.38;110495;1268;22394;-50
2023/04/08 04:28:07;;;;;;;;;;;;;;;12.31;64.02;102103.89;110521;1276;22444;-50
2023/04/08 04:30:38;;;;;;;;;;;;;;;12.34;63.88;102105.79;110233;1274;22426;-50
2023/04/08 04:33:07;;;;;;;;;;;;;;;12.38;63.94;102104.01;110482;1276;22405;-49
2023/04/08 04:35:35;;;;;;;;;;;;;;;12.43;63.85;102101.89;110490;1268;22406;-50
2023/04/08 04:38:06;;;;;;;;;;;;;;;12.52;63.78;102105.13;110519;1276;23044;-50
2023/04/08 04:40:36;;;;;;;;;;;;;;;12.58;63.65;102105.41;110563;1268;22602;-50
2023/04/08 04:43:04;;;;;;;;;;;;;;;12.63;63.46;102106.40;110496;1268;23172;-50
2023/04/08 04:45:36;;;;;;;;;;;;;;;12.67;63.34;102107.42;109986;1276;23250;-50
2023/04/08 04:48:05;;;;;;;;;;;;;;;12.69;63.33;102115.41;110459;1268;23251;-50
2023/04/08 04:50:34;;;;;;;;;;;;;;;12.71;63.39;102115.57;110522;1268;23100;-50
2023/04/08 04:53:09;;;;;;;;;;;;;;;12.76;63.35;102119.36;110257;1269;22453;-50
2023/04/08 04:55:39;;;;;;;;;;;;;;;12.80;63.38;102120.70;110191;1269;22412;-51
2023/04/08 04:58:07;;;;;;;;;;;;;;;12.84;63.31;102125.20;110527;1268;22395;-50
2023/04/08 05:00:37;;;;;;;;;;;;;;;12.91;63.19;102128.63;110508;1268;22427;-50
2023/04/08 05:03:06;;;;;;;;;;;;;;;12.98;63.11;102125.40;110226;1276;22424;-49
2023/04/08 05:05:35;;;;;;;;;;;;;;;13.04;63.08;102125.73;110524;1268;23099;-49
2023/04/08 05:08:06;;;;;;;;;;;;;;;13.10;63.03;102123.94;110255;1271;22420;-50
2023/04/08 05:10:35;;;;;;;;;;;;;;;13.15;62.85;102122.33;110528;1268;23104;-49
2023/04/08 05:13:04;;;;;;;;;;;;;;;13.14;62.29;102122.68;110409;1276;22424;-49
2023/04/08 05:15:33;;;;;;;;;;;;;;;13.13;62.25;102122.68;110536;1276;23156;-50
2023/04/08 05:18:02;;;;;;;;;;;;;;;13.16;62.25;102127.36;110495;1268;23035;-50
2023/04/08 05:20:31;;;;;;;;;;;;;;;13.19;62.06;102128.20;110521;1268;22426;-50
2023/04/08 05:22:59;;;;;;;;;;;;;;;13.20;61.94;102131.85;110492;1268;22480;-50
2023/04/08 05:25:28;;;;;;;;;;;;;;;13.24;62.15;102135.64;110467;1276;22930;-50
2023/04/08 05:27:56;;;;;;;;;;;;;;;13.31;62.13;102135.05;110522;1276;22414;-50
2023/04/08 05:30:25;;;;;;;;;;;;;;;13.36;61.83;102135.31;110507;1273;23274;-50
2023/04/08 05:32:54;;;;;;;;;;;;;;;13.38;61.51;102139.48;110538;1273;22595;-50
2023/04/08 05:35:26;;;;;;;;;;;;;;;13.36;61.45;102139.67;110207;1273;22418;-49
2023/04/08 05:37:55;;;;;;;;;;;;;;;13.37;61.48;102140.54;109740;1268;1002232;-49
2023/04/08 05:40:23;;;;;;;;;;;;;;;13.35;61.35;102144.56;110367;1272;22581;-50
2023/04/08 05:42:51;;;;;;;;;;;;;;;13.35;61.41;102145.80;110497;1268;22397;-50
2023/04/08 05:45:21;;;;;;;;;;;;;;;13.36;61.40;102150.48;110534;1268;22428;-49
2023/04/08 05:47:49;;;;;;;;;;;;;;;13.32;61.20;102152.27;110337;1266;23198;-50
2023/04/08 05:50:17;;;;;;;;;;;;;;;13.27;61.42;102156.52;110496;1276;22397;-50
2023/04/08 05:52:46;;;;;;;;;;;;;;;13.27;61.72;102158.42;109747;1268;1002888;-50
2023/04/08 05:55:14;;;;;;;;;;;;;;;13.35;61.76;102160.61;110506;1269;22419;-50
2023/04/08 05:57:42;;;;;;;;;;;;;;;13.39;61.42;102164.23;110482;1269;23114;-50
2023/04/08 06:00:10;;;;;;;;;;;;;;;13.40;61.21;102165.08;110488;1276;23024;-49
2023/04/08 06:02:58;;;;;;;;;;;;;;;13.40;60.93;102162.28;110478;1268;22531;-50
2023/04/08 06:05:27;;;;;;;;;;;;;;;13.37;60.84;102169.13;110524;1276;22511;-49
2023/04/08 06:07:56;;;;;;;;;;;;;;;13.32;60.99;102167.09;110526;1269;22415;-49
2023/04/08 06:10:24;;;;;;;;;;;;;;;13.29;61.40;102167.81;110502;1276;22422;-49
2023/04/08 06:12:53;;;;;;;;;;;;;;;13.34;61.39;102167.24;110549;1268;22423;-49
2023/04/08 06:15:21;;;;;;;;;;;;;;;13.46;61.33;102169.02;110565;1268;22417;-49
2023/04/08 06:17:50;;;;;;;;;;;;;;;13.53;61.10;102170.34;110526;1268;22400;-49
2023/04/08 06:20:19;;;;;;;;;;;;;;;13.58;60.96;102172.73;110529;1276;23138;-49
2023/04/08 06:22:47;;;;;;;;;;;;;;;13.52;61.42;102170.88;110561;1268;22400;-49
2023/04/08 06:25:15;;;;;;;;;;;;;;;13.57;61.47;102171.86;110499;1276;22493;-49
2023/04/08 06:27:43;;;;;;;;;;;;;;;13.65;61.11;102172.65;110552;1268;23159;-48
2023/04/08 06:30:12;;;;;;;;;;;;;;;13.73;61.15;102174.98;110526;1273;23123;-49
2023/04/08 06:32:41;;;;;;;;;;;;;;;13.87;61.34;102175.84;110535;1269;22404;-49
2023/04/08 06:35:09;;;;;;;;;;;;;;;14.11;60.74;102179.54;110519;1276;22422;-49
2023/04/08 06:37:38;;;;;;;;;;;;;;;14.34;59.65;102182.55;110485;1273;22419;-49
2023/04/08 06:40:06;;;;;;;;;;;;;;;14.43;59.09;102186.45;110540;1276;23220;-49
2023/04/08 06:42:37;;;;;;;;;;;;;;;14.50;58.91;102192.09;110528;1270;22560;-49
2023/04/08 06:45:23;;;;;;;;;;;;;;;14.57;58.63;102193.21;110460;1276;23144;-49
2023/04/08 06:47:51;;;;;;;;;;;;;;;14.63;58.06;102191.38;110516;1276;22407;-49
2023/04/08 06:50:20;;;;;;;;;;;;;;;14.71;58.32;102193.69;110515;1273;22438;-49
2023/04/08 06:52:48;;;;;;;;;;;;;;;14.85;58.45;102194.70;110518;1269;22421;-49
2023/04/08 06:55:16;;;;;;;;;;;;;;;15.05;57.67;102193.63;110537;1269;22427;-49
2023/04/08 06:57:45;;;;;;;;;;;;;;;15.27;57.14;102189.05;110538;1269;23045;-49
2023/04/08 07:00:13;;;;;;;;;;;;;;;15.45;56.78;102191.88;110353;1273;22421;-48
2023/04/08 07:03:01;;;;;;;;;;;;;;;15.64;56.20;102198.52;110483;1276;22578;-49
2023/04/08 07:05:30;;;;;;;;;;;;;;;15.79;55.49;102197.50;110228;1276;22434;-49
2023/04/08 07:07:58;;;;;;;;;;;;;;;15.92;54.81;102201.61;110198;1276;22448;-49
2023/04/08 07:10:26;;;;;;;;;;;;;;;16.02;54.18;102200.34;110498;1273;22415;-49
2023/04/08 07:12:56;;;;;;;;;;;;;;;16.09;53.61;102200.17;110539;1272;22397;-48
2023/04/08 07:15:24;;;;;;;;;;;;;;;16.10;52.83;102203.50;110210;1276;23172;-48
2023/04/08 07:17:58;;;;;;;;;;;;;;;16.01;52.48;102204.55;110219;1276;22421;-49
2023/04/08 07:20:27;;;;;;;;;;;;;;;15.90;52.64;102200.09;110526;1276;22442;-49
2023/04/08 07:22:59;;;;;;;;;;;;;;;15.82;53.03;102203.04;110501;1276;22384;-49
2023/04/08 07:25:27;;;;;;;;;;;;;;;15.86;53.57;102205.05;110550;1276;22539;-48
2023/04/08 07:27:56;;;;;;;;;;;;;;;15.90;53.03;102203.22;110553;1273;23051;-49
2023/04/08 07:30:24;;;;;;;;;;;;;;;15.98;53.40;102203.23;110247;1272;22421;-49
2023/04/08 07:32:54;;;;;;;;;;;;;;;16.14;53.44;102203.42;110513;1273;22407;-48
2023/04/08 07:35:27;;;;;;;;;;;;;;;16.33;52.72;102202.46;110488;1274;22483;-49
2023/04/08 07:37:56;;;;;;;;;;;;;;;16.46;51.74;102204.27;110529;1276;23169;-48
2023/04/08 07:40:25;;;;;;;;;;;;;;;16.50;50.75;102203.66;110578;1268;22421;-49
2023/04/08 07:42:53;;;;;;;;;;;;;;;16.47;50.44;102205.30;110513;1269;23073;-48
2023/04/08 07:45:21;;;;;;;;;;;;;;;16.44;50.31;102207.98;110498;1271;22915;-49
2023/04/08 07:47:49;;;;;;;;;;;;;;;16.43;50.29;102209.08;110495;1276;23299;-49
2023/04/08 07:50:18;;;;;;;;;;;;;;;16.45;50.57;102209.55;110542;1276;23182;-49
2023/04/08 07:52:46;;;;;;;;;;;;;;;16.51;50.76;102207.50;110548;1269;23217;-49
2023/04/08 07:55:14;;;;;;;;;;;;;;;16.56;49.88;102211.41;110571;1268;22403;-49
2023/04/08 07:57:42;;;;;;;;;;;;;;;16.58;49.41;102208.40;110266;1276;23139;-49
2023/04/08 08:00:13;;;;;;;;;;;;;;;16.59;48.70;102208.73;110546;1268;22414;-48
2023/04/08 08:02:43;;;;;;;;;;;;;;;16.64;49.25;102211.07;110506;1269;23415;-49
2023/04/08 08:05:11;;;;;;;;;;;;;;;16.72;50.80;102213.48;110535;1268;22393;-49
2023/04/08 08:07:39;;;;;;;;;;;;;;;16.82;51.05;102215.86;110532;1273;22394;-49
2023/04/08 08:10:08;;;;;;;;;;;;;;;16.93;51.45;102211.05;110531;1276;22420;-49
2023/04/08 08:12:36;;;;;;;;;;;;;;;17.01;51.67;102207.69;109773;1276;1002341;-49
2023/04/08 08:15:05;;;;;;;;;;;;;;;17.08;51.56;102202.94;110503;1269;22405;-48
2023/04/08 08:17:35;;;;;;;;;;;;;;;17.16;51.49;102200.98;110510;1268;22401;-48
2023/04/08 08:20:03;;;;;;;;;;;;;;;17.21;51.27;102200.14;110536;1272;22394;-49
2023/04/08 08:22:32;;;;;;;;;;;;;;;17.27;51.17;102198.75;110494;1269;22441;-49
2023/04/08 08:25:00;;;;;;;;;;;;;;;17.30;50.77;102200.77;110493;1276;22506;-48
2023/04/08 08:27:29;;;;;;;;;;;;;;;17.33;50.47;102199.27;110524;1275;22511;-48
2023/04/08 08:29:59;;;;;;;;;;;;;;;17.36;50.66;102203.42;110463;1273;23086;-49
2023/04/08 08:32:27;;;;;;;;;;;;;;;17.36;51.04;102202.18;110526;1268;22437;-48
2023/04/08 08:34:55;;;;;;;;;;;;;;;17.37;51.53;102203.23;110486;1273;22401;-49
2023/04/08 08:37:23;;;;;;;;;;;;;;;17.38;52.28;102202.48;110209;1273;22551;-49
2023/04/08 08:39:51;;;;;;;;;;;;;;;17.42;52.63;102200.80;110534;1268;22401;-48
2023/04/08 08:42:23;;;;;;;;;;;;;;;17.49;51.77;102196.08;110520;1269;22571;-49
2023/04/08 08:44:52;;;;;;;;;;;;;;;17.56;51.78;102204.11;110470;1270;22430;-49
2023/04/08 08:47:21;;;;;;;;;;;;;;;17.65;51.12;102202.80;110382;1277;23175;-49
2023/04/08 08:49:49;;;;;;;;;;;;;;;17.68;50.20;102200.46;110200;1273;22432;-49
2023/04/08 08:52:17;;;;;;;;;;;;;;;17.68;50.56;102202.73;110478;1276;22431;-50
2023/04/08 08:54:46;;;;;;;;;;;;;;;17.67;51.07;102205.21;110460;1276;23101;-49
2023/04/08 08:57:18;;;;;;;;;;;;;;;17.61;50.38;102204.50;110486;1272;22417;-49
2023/04/08 08:59:47;;;;;;;;;;;;;;;17.59;49.46;102202.80;110054;1276;22475;-49
2023/04/08 09:02:29;;;;;;;;;;;;;;;17.58;49.54;102205.98;110542;1268;22424;-49
2023/04/08 09:05:01;;;;;;;;;;;;;;;17.62;50.45;102205.89;110168;1276;22899;-49
2023/04/08 09:07:31;;;;;;;;;;;;;;;17.70;50.66;102210.77;110515;1268;22420;-49
2023/04/08 09:09:59;;;;;;;;;;;;;;;17.71;50.24;102209.14;110408;1269;22428;-49
2023/04/08 09:12:30;;;;;;;;;;;;;;;17.72;49.71;102205.06;110530;1268;22399;-49
2023/04/08 09:15:05;;;;;;;;;;;;;;;17.73;48.91;102205.05;110248;1271;23209;-49
2023/04/08 09:17:34;;;;;;;;;;;;;;;17.75;48.17;102200.24;110226;1276;22430;-49
2023/04/08 09:20:10;;;;;;;;;;;;;;;17.77;47.42;102201.06;110526;1272;22399;-48
2023/04/08 09:22:59;;;;;;;;;;;;;;;17.76;47.14;102200.39;110537;1268;22901;-49
2023/04/08 09:25:28;;;;;;;;;;;;;;;17.72;47.78;102202.78;110498;1269;22430;-50
2023/04/08 09:27:57;;;;;;;;;;;;;;;17.71;48.84;102204.22;110500;1276;22435;-49
2023/04/08 09:30:26;;;;;;;;;;;;;;;17.74;49.90;102205.36;110499;1270;22410;-46
2023/04/08 09:32:55;;;;;;;;;;;;;;;17.79;50.17;102205.05;110488;1276;22414;-49
2023/04/08 09:35:24;;;;;;;;;;;;;;;17.83;49.62;102203.53;110529;1274;22424;-49
2023/04/08 09:37:53;;;;;;;;;;;;;;;17.89;49.08;102209.67;110515;1276;22498;-49
2023/04/08 09:40:28;;;;;;;;;;;;;;;17.96;49.74;102208.98;110532;1269;22409;-49
2023/04/08 09:42:57;;;;;;;;;;;;;;;18.02;49.67;102207.71;110495;1273;23055;-49
2023/04/08 09:45:26;;;;;;;;;;;;;;;18.04;49.21;102205.55;110388;1274;22447;-48
2023/04/08 09:47:56;;;;;;;;;;;;;;;18.05;49.06;102210.64;110497;1276;22424;-49
2023/04/08 09:50:27;;;;;;;;;;;;;;;18.05;48.80;102210.81;110463;1270;22481;-49
2023/04/08 09:53:14;;;;;;;;;;;;;;;18.05;48.81;102212.37;110318;1274;23183;-49
2023/04/08 09:55:44;;;;;;;;;;;;;;;18.05;48.78;102211.86;110502;1271;23113;-49
2023/04/08 09:58:15;;;;;;;;;;;;;;;18.03;49.54;102209.27;110485;1276;22424;-49
2023/04/08 10:00:49;;;;;;;;;;;;;;;18.01;49.58;102210.90;110175;1276;22519;-49
2023/04/08 10:03:34;;;;;;;;;;;;;;;17.87;50.15;102207.98;110513;1273;23187;-49
2023/04/08 10:06:07;;;;;;;;;;;;;;;17.79;50.08;102208.73;110375;1272;22482;-49
2023/04/08 10:08:36;;;;;;;;;;;;;;;17.76;50.05;102210.92;110430;1269;24144;-49
2023/04/08 10:11:05;;;;;;;;;;;;;;;17.74;50.06;102209.23;110371;1277;23174;-49
2023/04/08 10:13:33;;;;;;;;;;;;;;;17.73;50.03;102212.77;110230;1273;23154;-49
2023/04/08 10:16:20;;;;;;;;;;;;;;;17.71;50.02;102215.81;110164;1273;22455;-48
2023/04/08 10:18:54;;;;;;;;;;;;;;;17.68;50.07;102212.57;110030;1278;22428;-49
2023/04/08 10:21:37;;;;;;;;;;;;;;;17.75;50.30;102211.13;110213;1272;22419;-49
2023/04/08 10:24:05;;;;;;;;;;;;;;;17.83;50.13;102214.94;110257;1272;22414;-49
2023/04/08 10:26:35;;;;;;;;;;;;;;;17.87;49.90;102215.36;110245;1272;22460;-49
2023/04/08 10:29:16;;;;;;;;;;;;;;;17.88;49.74;102214.26;110215;1274;22433;-48
2023/04/08 10:31:47;;;;;;;;;;;;;;;17.89;49.76;102214.42;110263;1274;22475;-49
2023/04/08 10:34:21;;;;;;;;;;;;;;;17.91;49.79;102217.19;110226;1278;22506;-49
2023/04/08 10:36:49;;;;;;;;;;;;;;;17.95;49.30;102218.81;110051;1276;22462;-49
2023/04/08 10:39:17;;;;;;;;;;;;;;;17.99;48.79;102216.42;110226;1278;22445;-49
2023/04/08 10:41:46;;;;;;;;;;;;;;;18.02;48.39;102216.15;110213;1272;23272;-49
2023/04/08 10:44:18;;;;;;;;;;;;;;;18.05;48.09;102213.08;110296;1274;23342;-50
2023/04/08 10:46:48;;;;;;;;;;;;;;;18.09;48.39;102211.21;110479;1270;22441;-49
2023/04/08 10:49:17;;;;;;;;;;;;;;;18.11;49.00;102211.33;110491;1269;23169;-49
2023/04/08 10:51:47;;;;;;;;;;;;;;;18.11;49.29;102210.79;110495;1272;22415;-49
2023/04/08 10:54:16;;;;;;;;;;;;;;;17.99;49.56;102209.57;110410;1268;22515;-49
2023/04/08 10:56:45;;;;;;;;;;;;;;;17.97;49.48;102208.21;110525;1269;22503;-49
2023/04/08 10:59:15;;;;;;;;;;;;;;;17.99;50.02;102210.11;110166;1269;22429;-49
2023/04/08 11:01:44;;;;;;;;;;;;;;;17.98;49.90;102210.66;110476;1269;22440;-49
2023/04/08 11:04:13;;;;;;;;;;;;;;;17.96;49.87;102210.55;109725;1268;1002244;-50
2023/04/08 11:06:42;;;;;;;;;;;;;;;17.95;50.16;102203.73;110473;1273;22390;-50
2023/04/08 11:09:10;;;;;;;;;;;;;;;17.95;50.09;102201.09;110157;1276;23195;-50
2023/04/08 11:11:42;;;;;;;;;;;;;;;17.97;49.95;102202.79;110086;1276;22443;-49
2023/04/08 11:14:11;;;;;;;;;;;;;;;17.98;49.84;102202.75;110437;1270;22393;-49
2023/04/08 11:16:39;;;;;;;;;;;;;;;17.99;49.65;102204.84;110492;1269;22467;-49
2023/04/08 11:19:08;;;;;;;;;;;;;;;18.01;49.32;102201.95;110508;1276;23144;-48
2023/04/08 11:21:37;;;;;;;;;;;;;;;18.04;48.72;102198.19;110510;1269;23078;-48
2023/04/08 11:24:06;;;;;;;;;;;;;;;18.04;48.32;102196.77;110183;1276;22446;-49
2023/04/08 11:26:39;;;;;;;;;;;;;;;18.07;48.08;102198.63;110479;1273;22412;-48
2023/04/08 11:29:13;;;;;;;;;;;;;;;18.02;47.91;102198.95;108963;1270;1002995;-48
2023/04/08 11:31:41;;;;;;;;;;;;;;;17.97;47.91;102195.40;110513;1268;22517;-48
2023/04/08 11:34:11;;;;;;;;;;;;;;;17.95;48.00;102192.85;110455;1271;22485;-49
2023/04/08 11:36:39;;;;;;;;;;;;;;;17.95;47.98;102193.55;109730;1270;1002621;-48
2023/04/08 11:39:10;;;;;;;;;;;;;;;17.94;47.81;102193.21;110493;1273;22426;-48
2023/04/08 11:41:40;;;;;;;;;;;;;;;17.94;47.60;102187.42;110245;1276;22458;-49
2023/04/08 11:44:08;;;;;;;;;;;;;;;17.93;47.63;102188.69;110469;1276;22392;-48
2023/04/08 11:46:37;;;;;;;;;;;;;;;17.82;47.91;102185.84;110497;1270;22428;-48
2023/04/08 11:49:05;;;;;;;;;;;;;;;17.65;48.02;102185.64;110197;1276;22459;-48
2023/04/08 11:51:53;;;;;;;;;;;;;;;17.56;48.02;102177.98;110015;1276;22424;-48
2023/04/08 11:54:27;;;;;;;;;;;;;;;17.49;48.21;102176.05;110493;1270;22418;-48
2023/04/08 11:56:57;;;;;;;;;;;;;;;17.45;48.47;102176.51;110473;1273;22415;-48
2023/04/08 11:59:25;;;;;;;;;;;;;;;17.43;49.05;102174.98;110336;1276;22441;-49
2023/04/08 12:01:56;;;;;;;;;;;;;;;17.44;49.43;102173.56;110339;1274;22558;-48
2023/04/08 12:04:24;;;;;;;;;;;;;;;17.45;49.65;102173.89;109395;1276;1002279;-48
2023/04/08 12:06:53;;;;;;;;;;;;;;;17.45;49.53;102178.09;110166;1274;22443;-48
2023/04/08 12:09:25;;;;;;;;;;;;;;;17.44;49.27;102176.73;110456;1276;23646;-49
2023/04/08 12:11:53;;;;;;;;;;;;;;;17.41;49.01;102173.64;110477;1270;22485;-48
2023/04/08 12:14:24;;;;;;;;;;;;;;;17.38;49.02;102173.02;110462;1270;22448;-49
2023/04/08 12:16:55;;;;;;;;;;;;;;;17.31;49.33;102171.81;110475;1269;22424;-49
2023/04/08 12:19:23;;;;;;;;;;;;;;;17.21;49.42;102172.25;110476;1273;22431;-49
2023/04/08 12:21:51;;;;;;;;;;;;;;;17.18;49.40;102171.48;110458;1270;22466;-48
2023/04/08 12:24:20;;;;;;;;;;;;;;;17.14;49.48;102170.16;110463;1269;22402;-49
2023/04/08 12:26:49;;;;;;;;;;;;;;;17.15;49.22;102168.04;110527;1268;22415;-48
2023/04/08 12:29:17;;;;;;;;;;;;;;;17.14;49.31;102169.11;110347;1276;22566;-48
2023/04/08 12:31:46;;;;;;;;;;;;;;;17.12;49.74;102167.60;110196;1275;22434;-48
2023/04/08 12:34:15;;;;;;;;;;;;;;;17.13;50.14;102166.35;110466;1273;22460;-48
2023/04/08 12:36:43;;;;;;;;;;;;;;;17.22;49.99;102162.77;110469;1268;22432;-48
2023/04/08 12:39:14;;;;;;;;;;;;;;;17.28;49.61;102159.09;110423;1276;22397;-49